Terminal Aerodrome Forecast
Issued by NWS Tuscon, AZ

Home | Current Version | Previous Version | Text Only | Print | Product List | Glossary On
Versions: 1 2 3 4 5 6 7 8 9 10 11 12 13 14
000
FTUS45 KTWC 240526
TAFDUG
TAF
KDUG 240526Z 2406/2506 36006KT P6SM SCT220
     FM240900 15005KT P6SM SCT220
     FM241500 19014G22KT P6SM FEW220
     FM241900 23025G35KT P6SM FEW220
     FM250300 23014G23KT P6SM FEW220=

USA.gov is the U.S. government's official web portal to all federal, state and local government web resources and services.